createdAt,value
2023-05-20T00:01:53.640Z,1.30
2023-05-20T00:04:21.207Z,1.35
2023-05-20T00:06:48.663Z,1.40
2023-05-20T00:09:17.376Z,1.33
2023-05-20T00:11:45.942Z,1.60
2023-05-20T00:14:13.089Z,1.20
2023-05-20T00:16:40.485Z,1.52
2023-05-20T00:19:08.020Z,1.10
2023-05-20T00:21:35.180Z,1.15
2023-05-20T00:24:02.379Z,1.10
2023-05-20T00:26:29.751Z,1.05
2023-05-20T00:28:58.096Z,1.27
2023-05-20T00:31:25.418Z,1.15
2023-05-20T00:33:53.058Z,1.23
2023-05-20T00:36:20.861Z,1.02
2023-05-20T00:38:48.176Z,0.90
2023-05-20T00:41:15.521Z,1.17
2023-05-20T00:43:43.930Z,1.00
2023-05-20T00:46:11.599Z,0.90
2023-05-20T00:48:43.826Z,1.42
2023-05-20T00:51:13.221Z,0.73
2023-05-20T00:53:42.266Z,1.08
2023-05-20T00:56:10.295Z,1.10
2023-05-20T00:58:38.216Z,1.15
2023-05-20T01:01:06.761Z,1.38
2023-05-20T01:03:34.280Z,1.30
2023-05-20T01:06:02.436Z,1.10
2023-05-20T01:08:29.887Z,1.20
2023-05-20T01:11:08.238Z,1.08
2023-05-20T01:13:43.511Z,1.05
2023-05-20T01:16:12.193Z,0.80
2023-05-20T01:18:41.164Z,1.38
2023-05-20T01:21:12.152Z,1.20
2023-05-20T01:23:41.146Z,0.98
2023-05-20T01:26:13.976Z,1.30
2023-05-20T01:28:45.942Z,1.10
2023-05-20T01:31:24.232Z,1.50
2023-05-20T01:33:55.760Z,1.00
2023-05-20T01:36:23.337Z,1.27
2023-05-20T01:38:51.522Z,1.10
2023-05-20T01:41:19.357Z,1.20
2023-05-20T01:43:46.948Z,0.80
2023-05-20T01:46:15.756Z,0.70
2023-05-20T01:48:43.354Z,1.00
2023-05-20T01:51:10.578Z,1.30
2023-05-20T01:53:37.808Z,0.73
2023-05-20T01:56:06.364Z,1.20
2023-05-20T01:58:33.692Z,0.85
2023-05-20T02:01:01.809Z,1.17
2023-05-20T02:03:29.069Z,1.10
2023-05-20T02:05:56.642Z,1.23
2023-05-20T02:08:23.884Z,1.08
2023-05-20T02:10:51.346Z,1.50
2023-05-20T02:13:18.783Z,1.25
2023-05-20T02:15:46.232Z,1.17
2023-05-20T02:18:14.262Z,1.02
2023-05-20T02:20:42.811Z,1.33
2023-05-20T02:23:10.271Z,1.45
2023-05-20T02:25:37.592Z,1.10
2023-05-20T02:28:06.186Z,1.13
2023-05-20T02:30:33.431Z,1.30
2023-05-20T02:33:00.722Z,0.68
2023-05-20T02:35:28.241Z,0.98
2023-05-20T02:37:55.657Z,1.00
2023-05-20T02:40:23.154Z,1.33
2023-05-20T02:42:50.320Z,0.90
2023-05-20T02:45:17.533Z,1.60
2023-05-20T02:47:45.907Z,0.90
2023-05-20T02:50:12.997Z,1.08
2023-05-20T02:52:42.619Z,1.10
2023-05-20T02:55:10.160Z,0.80
2023-05-20T02:57:40.711Z,1.30
2023-05-20T03:00:13.764Z,1.00
2023-05-20T03:02:41.056Z,0.93
2023-05-20T03:05:09.535Z,1.23
2023-05-20T03:07:36.985Z,1.00
2023-05-20T03:10:08.210Z,1.38
2023-05-20T03:12:35.733Z,1.00
2023-05-20T03:15:03.952Z,1.23
2023-05-20T03:17:33.326Z,1.10
2023-05-20T03:20:01.981Z,1.23
2023-05-20T03:22:33.068Z,1.02
2023-05-20T03:25:02.991Z,1.00
2023-05-20T03:27:37.014Z,1.40
2023-05-20T03:30:05.289Z,0.98
2023-05-20T03:32:34.354Z,0.85
2023-05-20T03:35:02.070Z,1.00
2023-05-20T03:37:32.049Z,1.58
2023-05-20T03:39:59.309Z,0.77
2023-05-20T03:42:26.506Z,1.40
2023-05-20T03:44:53.815Z,1.15
2023-05-20T03:47:21.156Z,1.52
2023-05-20T03:49:48.274Z,1.65
2023-05-20T03:52:15.457Z,1.10
2023-05-20T03:54:42.718Z,1.30
2023-05-20T03:57:10.687Z,0.90
2023-05-20T03:59:38.338Z,0.82
2023-05-20T04:02:06.348Z,1.25
2023-05-20T04:04:33.495Z,0.98
2023-05-20T04:07:01.178Z,0.70
2023-05-20T04:09:28.257Z,1.17
2023-05-20T04:11:55.393Z,1.40
2023-05-20T04:14:22.538Z,0.82
2023-05-20T04:16:50.460Z,1.35
2023-05-20T04:19:19.729Z,1.20
2023-05-20T04:21:46.975Z,0.98
2023-05-20T04:24:14.824Z,0.75
2023-05-20T04:26:42.420Z,1.05
2023-05-20T04:29:09.547Z,1.15
2023-05-20T04:31:36.648Z,1.05
2023-05-20T04:34:04.608Z,1.02
2023-05-20T04:36:31.725Z,1.30
2023-05-20T04:39:00.702Z,1.58
2023-05-20T04:41:27.803Z,0.90
2023-05-20T04:43:59.921Z,1.30
2023-05-20T04:46:27.290Z,1.15
2023-05-20T04:48:54.471Z,1.00
2023-05-20T04:51:21.753Z,0.82
2023-05-20T04:53:50.919Z,1.35
2023-05-20T04:56:17.970Z,1.40
2023-05-20T04:58:45.046Z,1.40
2023-05-20T05:01:12.372Z,1.30
2023-05-20T05:03:39.451Z,0.98
2023-05-20T05:06:06.804Z,1.23
2023-05-20T05:08:33.989Z,1.17
2023-05-20T05:11:01.094Z,1.35
2023-05-20T05:13:28.345Z,1.20
2023-05-20T05:16:00.019Z,1.30
2023-05-20T05:18:28.810Z,1.17
2023-05-20T05:21:06.698Z,0.95
2023-05-20T05:23:35.456Z,1.60
2023-05-20T05:26:02.721Z,1.30
2023-05-20T05:28:29.920Z,1.20
2023-05-20T05:30:58.165Z,1.25
2023-05-20T05:33:26.796Z,1.42
2023-05-20T05:35:54.533Z,1.20
2023-05-20T05:38:21.744Z,2.03
2023-05-20T05:40:49.208Z,1.30
2023-05-20T05:43:17.361Z,1.33
2023-05-20T05:45:46.925Z,1.20
2023-05-20T05:48:14.184Z,1.35
2023-05-20T05:50:45.909Z,1.38
2023-05-20T05:53:14.778Z,1.50
2023-05-20T05:55:46.856Z,1.40
2023-05-20T05:58:14.201Z,1.67
2023-05-20T06:00:41.917Z,1.30
2023-05-20T06:03:10.076Z,1.73
2023-05-20T06:05:38.353Z,1.70
2023-05-20T06:08:05.919Z,1.50
2023-05-20T06:10:34.973Z,1.08
2023-05-20T06:13:02.005Z,1.30
2023-05-20T06:15:29.111Z,1.48
2023-05-20T06:17:57.055Z,1.20
2023-05-20T06:20:25.587Z,1.15
2023-05-20T06:22:52.857Z,1.38
2023-05-20T06:25:20.568Z,1.05
2023-05-20T06:27:47.816Z,1.50
2023-05-20T06:30:18.789Z,1.20
2023-05-20T06:32:46.874Z,1.20
2023-05-20T06:35:13.981Z,1.77
2023-05-20T06:37:41.534Z,1.20
2023-05-20T06:40:10.006Z,1.38
2023-05-20T06:42:37.538Z,1.13
2023-05-20T06:45:06.463Z,1.25
2023-05-20T06:47:55.479Z,1.38
2023-05-20T06:50:22.674Z,1.80
2023-05-20T06:52:49.906Z,1.35
2023-05-20T06:55:17.504Z,1.63
2023-05-20T06:57:54.324Z,1.40
2023-05-20T07:00:25.103Z,1.80
2023-05-20T07:02:55.974Z,1.45
2023-05-20T07:05:30.131Z,1.60
2023-05-20T07:07:58.805Z,1.02
2023-05-20T07:10:27.122Z,1.52
2023-05-20T07:12:54.618Z,1.13
2023-05-20T07:15:22.499Z,1.52
2023-05-20T07:17:49.874Z,0.90
2023-05-20T07:20:17.584Z,1.75
2023-05-20T07:22:45.416Z,1.67
2023-05-20T07:25:21.946Z,1.38
2023-05-20T07:27:50.003Z,1.05
2023-05-20T07:30:17.282Z,1.13
2023-05-20T07:32:51.542Z,1.10
2023-05-20T07:35:19.286Z,1.60
2023-05-20T07:37:46.401Z,1.30
2023-05-20T07:40:14.625Z,1.23
2023-05-20T07:42:42.204Z,1.30
2023-05-20T07:45:10.689Z,1.65
2023-05-20T07:47:38.720Z,1.75
2023-05-20T07:50:06.424Z,1.10
2023-05-20T07:52:43.951Z,1.30
2023-05-20T07:55:23.555Z,1.48
2023-05-20T07:57:50.892Z,2.10
2023-05-20T08:00:19.566Z,1.80
2023-05-20T08:02:47.476Z,1.10
2023-05-20T08:05:20.755Z,1.50
2023-05-20T08:07:47.904Z,1.58
2023-05-20T08:10:16.043Z,1.90
2023-05-20T08:12:44.713Z,2.17
2023-05-20T08:15:12.576Z,2.08
2023-05-20T08:17:40.690Z,1.08
2023-05-20T08:20:12.859Z,1.30
2023-05-20T08:22:41.000Z,1.40
2023-05-20T08:25:09.421Z,2.00
2023-05-20T08:27:37.374Z,2.05
2023-05-20T08:30:08.317Z,1.50
2023-05-20T08:32:36.916Z,1.20
2023-05-20T08:35:05.112Z,1.63
2023-05-20T08:37:32.197Z,1.83
2023-05-20T08:39:59.312Z,1.33
2023-05-20T08:42:27.099Z,1.85
2023-05-20T08:44:57.712Z,1.75
2023-05-20T08:47:26.723Z,1.20
2023-05-20T08:49:53.866Z,1.33
2023-05-20T08:52:22.627Z,1.90
2023-05-20T08:54:51.793Z,1.65
2023-05-20T08:57:20.524Z,1.42
2023-05-20T08:59:47.757Z,1.90
2023-05-20T09:02:15.818Z,1.55
2023-05-20T09:04:43.371Z,1.58
2023-05-20T09:07:10.955Z,1.67
2023-05-20T09:09:38.426Z,1.75
2023-05-20T09:12:06.386Z,1.33
2023-05-20T09:14:33.615Z,1.48
2023-05-20T09:17:00.836Z,1.58
2023-05-20T09:19:28.116Z,1.95
2023-05-20T09:21:55.594Z,2.03
2023-05-20T09:24:26.862Z,2.45
2023-05-20T09:26:54.376Z,1.45
2023-05-20T09:29:22.041Z,1.90
2023-05-20T09:31:50.398Z,1.58
2023-05-20T09:34:18.090Z,2.22
2023-05-20T09:36:45.597Z,1.42
2023-05-20T09:39:20.142Z,1.33
2023-05-20T09:41:56.886Z,1.33
2023-05-20T09:44:24.388Z,1.25
2023-05-20T09:46:53.416Z,1.85
2023-05-20T09:49:23.480Z,1.35
2023-05-20T09:51:51.397Z,0.95
2023-05-20T09:54:19.897Z,1.52
2023-05-20T09:56:48.250Z,1.10
2023-05-20T09:59:21.878Z,1.48
2023-05-20T10:01:49.225Z,1.70
2023-05-20T10:04:18.562Z,1.02
2023-05-20T10:07:11.980Z,1.58
2023-05-20T10:09:57.424Z,1.45
2023-05-20T10:12:34.548Z,2.25
2023-05-20T10:15:15.134Z,1.45
2023-05-20T10:18:05.823Z,2.05
2023-05-20T10:20:33.191Z,1.95
2023-05-20T10:23:00.294Z,1.73
2023-05-20T10:25:28.634Z,3.03
2023-05-20T10:28:08.846Z,2.10
2023-05-20T10:30:38.154Z,1.92
2023-05-20T10:33:07.153Z,2.08
2023-05-20T10:35:34.635Z,2.20
2023-05-20T10:38:11.043Z,1.40
2023-05-20T10:40:38.929Z,1.27
2023-05-20T10:43:13.765Z,1.40
2023-05-20T10:45:51.165Z,1.45
2023-05-20T10:48:29.973Z,1.60
2023-05-20T10:51:06.124Z,2.25
2023-05-20T10:53:41.558Z,1.50
2023-05-20T10:56:24.394Z,1.77
2023-05-20T10:58:53.533Z,1.43
2023-05-20T11:01:26.851Z,1.33
2023-05-20T11:03:58.313Z,1.70
2023-05-20T11:06:28.587Z,1.65
2023-05-20T11:08:56.668Z,2.03
2023-05-20T11:11:24.234Z,1.95
2023-05-20T11:13:52.738Z,1.88
2023-05-20T11:16:21.616Z,1.85
2023-05-20T11:18:50.649Z,2.20
2023-05-20T11:21:20.411Z,1.55
2023-05-20T11:23:47.631Z,2.33
2023-05-20T11:26:14.917Z,1.83
2023-05-20T11:28:42.306Z,2.33
2023-05-20T11:31:10.500Z,2.05
2023-05-20T11:33:42.706Z,1.85
2023-05-20T11:36:26.403Z,2.22
2023-05-20T11:38:57.973Z,2.00
2023-05-20T11:41:26.247Z,1.50
2023-05-20T11:44:00.537Z,1.40
2023-05-20T11:46:28.943Z,1.55
2023-05-20T11:48:58.035Z,2.75
2023-05-20T11:51:28.236Z,1.85
2023-05-20T11:54:06.943Z,1.65
2023-05-20T11:56:38.934Z,2.00
2023-05-20T11:59:08.271Z,2.35
2023-05-20T12:01:46.123Z,2.00
2023-05-20T12:04:14.904Z,2.70
2023-05-20T12:06:45.972Z,2.30
2023-05-20T12:09:14.355Z,2.15
2023-05-20T12:11:42.289Z,1.60
2023-05-20T12:14:10.282Z,1.98
2023-05-20T12:16:38.244Z,2.15
2023-05-20T12:19:06.102Z,2.25
2023-05-20T12:21:33.456Z,2.05
2023-05-20T12:24:01.281Z,2.80
2023-05-20T12:26:30.065Z,1.90
2023-05-20T12:28:57.684Z,1.48
2023-05-20T12:31:25.414Z,1.90
2023-05-20T12:33:52.706Z,2.20
2023-05-20T12:36:20.067Z,2.17
2023-05-20T12:38:47.750Z,2.30
2023-05-20T12:41:14.991Z,2.60
2023-05-20T12:43:42.162Z,2.35
2023-05-20T12:46:09.863Z,2.75
2023-05-20T12:48:39.509Z,2.03
2023-05-20T12:51:08.151Z,2.10
2023-05-20T12:53:35.316Z,2.00
2023-05-20T12:56:02.628Z,1.67
2023-05-20T12:58:29.977Z,1.77
2023-05-20T13:01:00.133Z,1.67
2023-05-20T13:03:29.802Z,2.55
2023-05-20T13:05:57.071Z,1.55
2023-05-20T13:08:24.449Z,1.92
2023-05-20T13:10:52.615Z,2.15
2023-05-20T13:13:21.932Z,2.38
2023-05-20T13:15:52.500Z,2.75
2023-05-20T13:18:20.164Z,2.28
2023-05-20T13:20:47.365Z,2.30
2023-05-20T13:23:14.785Z,2.05
2023-05-20T13:25:42.050Z,1.80
2023-05-20T13:28:09.772Z,1.90
2023-05-20T13:30:37.119Z,2.13
2023-05-20T13:33:04.841Z,2.05
2023-05-20T13:35:32.063Z,1.95
2023-05-20T13:37:59.247Z,1.98
2023-05-20T13:40:26.583Z,2.05
2023-05-20T13:42:54.379Z,1.88
2023-05-20T13:45:23.318Z,1.48
2023-05-20T13:47:50.416Z,1.92
2023-05-20T13:50:17.826Z,1.77
2023-05-20T13:52:45.108Z,1.40
2023-05-20T13:55:12.331Z,1.85
2023-05-20T13:57:39.686Z,1.45
2023-05-20T14:00:07.677Z,2.03
2023-05-20T14:02:36.737Z,2.45
2023-05-20T14:05:04.353Z,2.05
2023-05-20T14:07:31.989Z,1.90
2023-05-20T14:09:59.114Z,1.83
2023-05-20T14:12:26.363Z,2.08
2023-05-20T14:14:53.494Z,1.55
2023-05-20T14:17:20.601Z,1.73
2023-05-20T14:19:48.154Z,1.23
2023-05-20T14:22:15.843Z,2.70
2023-05-20T14:24:43.103Z,1.85
2023-05-20T14:27:11.618Z,1.95
2023-05-20T14:29:38.687Z,2.00
2023-05-20T14:32:06.227Z,1.80
2023-05-20T14:34:33.412Z,2.30
2023-05-20T14:37:06.715Z,2.03
2023-05-20T14:39:33.819Z,2.08
2023-05-20T14:42:00.911Z,2.15
2023-05-20T14:44:28.066Z,2.25
2023-05-20T14:46:55.746Z,2.22
2023-05-20T14:49:23.425Z,1.52
2023-05-20T14:51:50.644Z,1.98
2023-05-20T14:54:19.298Z,2.55
2023-05-20T14:56:48.646Z,2.42
2023-05-20T14:59:17.239Z,2.30
2023-05-20T15:01:44.559Z,1.77
2023-05-20T15:04:11.960Z,2.08
2023-05-20T15:06:39.303Z,2.28
2023-05-20T15:09:06.556Z,2.10
2023-05-20T15:11:33.704Z,1.90
2023-05-20T15:14:01.069Z,2.25
2023-05-20T15:16:28.537Z,1.83
2023-05-20T15:18:55.745Z,2.00
2023-05-20T15:21:22.989Z,1.88
2023-05-20T15:23:50.295Z,2.40
2023-05-20T15:26:17.912Z,2.72
2023-05-20T15:28:45.103Z,2.17
2023-05-20T15:31:12.209Z,2.15
2023-05-20T15:33:39.671Z,2.13
2023-05-20T15:36:07.253Z,2.28
2023-05-20T15:38:34.401Z,1.70
2023-05-20T15:41:02.366Z,2.00
2023-05-20T15:43:29.876Z,1.90
2023-05-20T15:45:57.046Z,1.48
2023-05-20T15:48:24.487Z,1.85
2023-05-20T15:50:51.608Z,2.30
2023-05-20T15:53:19.038Z,1.63
2023-05-20T15:55:46.284Z,1.90
2023-05-20T15:58:13.738Z,2.35
2023-05-20T16:00:40.881Z,1.88
2023-05-20T16:03:08.541Z,1.98
2023-05-20T16:05:35.957Z,2.13
2023-05-20T16:08:03.444Z,2.10
2023-05-20T16:10:33.194Z,2.63
2023-05-20T16:13:01.521Z,2.20
2023-05-20T16:15:31.843Z,2.70
2023-05-20T16:17:59.011Z,2.72
2023-05-20T16:20:26.193Z,2.03
2023-05-20T16:22:53.443Z,2.30
2023-05-20T16:25:20.703Z,2.03
2023-05-20T16:27:48.722Z,2.05
2023-05-20T16:30:16.086Z,1.80
2023-05-20T16:32:43.393Z,1.85
2023-05-20T16:35:10.572Z,1.90
2023-05-20T16:37:37.720Z,2.72
2023-05-20T16:40:05.816Z,1.92
2023-05-20T16:42:33.148Z,2.20
2023-05-20T16:45:00.363Z,1.67
2023-05-20T16:47:27.555Z,1.73
2023-05-20T16:49:54.835Z,2.10
2023-05-20T16:52:22.340Z,2.65
2023-05-20T16:54:51.241Z,2.30
2023-05-20T16:57:18.963Z,2.75
2023-05-20T16:59:46.492Z,2.35
2023-05-20T17:02:13.604Z,2.10
2023-05-20T17:04:40.819Z,2.47
2023-05-20T17:07:09.949Z,2.50
2023-05-20T17:09:37.634Z,2.28
2023-05-20T17:12:05.628Z,2.38
2023-05-20T17:14:33.416Z,2.65
2023-05-20T17:17:00.678Z,2.35
2023-05-20T17:19:27.882Z,2.10
2023-05-20T17:21:55.406Z,2.15
2023-05-20T17:24:22.833Z,2.58
2023-05-20T17:26:50.167Z,2.83
2023-05-20T17:29:17.293Z,2.83
2023-05-20T17:31:44.821Z,2.88
2023-05-20T17:34:12.115Z,2.58
2023-05-20T17:36:39.226Z,2.40
2023-05-20T17:39:06.761Z,2.05
2023-05-20T17:41:33.812Z,3.03
2023-05-20T17:44:01.783Z,1.75
2023-05-20T17:46:29.318Z,1.95
2023-05-20T17:48:56.955Z,2.13
2023-05-20T17:51:24.092Z,1.98
2023-05-20T17:53:51.292Z,2.15
2023-05-20T17:56:18.691Z,2.10
2023-05-20T17:58:45.850Z,2.20
2023-05-20T18:01:13.055Z,1.73
2023-05-20T18:03:40.870Z,2.63
2023-05-20T18:06:08.927Z,2.25
2023-05-20T18:08:36.216Z,2.00
2023-05-20T18:11:03.505Z,2.63
2023-05-20T18:13:30.709Z,1.98
2023-05-20T18:15:57.901Z,2.35
2023-05-20T18:18:25.360Z,2.67
2023-05-20T18:20:52.392Z,3.08
2023-05-20T18:23:19.485Z,2.85
2023-05-20T18:25:46.695Z,2.47
2023-05-20T18:28:14.185Z,2.55
2023-05-20T18:30:41.452Z,2.55
2023-05-20T18:33:08.638Z,2.40
2023-05-20T18:35:36.059Z,3.05
2023-05-20T18:38:03.144Z,2.40
2023-05-20T18:40:30.250Z,2.28
2023-05-20T18:42:57.552Z,2.60
2023-05-20T18:45:25.148Z,3.33
2023-05-20T18:47:54.438Z,3.35
2023-05-20T18:50:21.908Z,3.03
2023-05-20T18:52:48.945Z,3.40
2023-05-20T18:55:16.408Z,3.42
2023-05-20T18:57:43.776Z,3.28
2023-05-20T19:00:12.661Z,3.60
2023-05-20T19:02:41.368Z,3.70
2023-05-20T19:05:09.512Z,2.80
2023-05-20T19:07:37.203Z,2.58
2023-05-20T19:10:05.499Z,3.05
2023-05-20T19:12:33.575Z,3.33
2023-05-20T19:15:01.543Z,2.75
2023-05-20T19:17:32.507Z,3.38
2023-05-20T19:19:59.733Z,2.65
2023-05-20T19:22:26.921Z,2.97
2023-05-20T19:24:54.055Z,2.65
2023-05-20T19:27:21.674Z,2.67
2023-05-20T19:29:48.671Z,2.60
2023-05-20T19:32:16.240Z,2.75
2023-05-20T19:34:43.973Z,3.50
2023-05-20T19:37:11.624Z,3.20
2023-05-20T19:39:38.808Z,3.03
2023-05-20T19:42:05.941Z,3.95
2023-05-20T19:44:33.052Z,2.63
2023-05-20T19:47:00.264Z,3.03
2023-05-20T19:49:29.607Z,4.00
2023-05-20T19:51:57.083Z,3.53
2023-05-20T19:54:24.215Z,3.85
2023-05-20T19:56:51.483Z,3.60
2023-05-20T19:59:18.502Z,4.55
2023-05-20T20:01:46.378Z,4.30
2023-05-20T20:04:17.216Z,3.78
2023-05-20T20:06:45.220Z,3.70
2023-05-20T20:09:12.367Z,3.15
2023-05-20T20:11:39.505Z,3.65
2023-05-20T20:14:06.585Z,3.85
2023-05-20T20:16:33.817Z,4.57
2023-05-20T20:19:01.491Z,3.63
2023-05-20T20:21:28.724Z,4.22
2023-05-20T20:23:55.741Z,3.97
2023-05-20T20:26:25.998Z,3.80
2023-05-20T20:28:53.535Z,3.90
2023-05-20T20:31:21.172Z,4.30
2023-05-20T20:33:48.272Z,4.85
2023-05-20T20:36:15.328Z,4.07
2023-05-20T20:38:46.809Z,4.68
2023-05-20T20:41:16.365Z,4.68
2023-05-20T20:43:45.142Z,4.32
2023-05-20T20:46:15.710Z,5.22
2023-05-20T20:48:45.945Z,4.00
2023-05-20T20:51:14.483Z,5.05
2023-05-20T20:53:42.301Z,5.60
2023-05-20T20:56:10.107Z,4.05
2023-05-20T20:58:38.474Z,4.75
2023-05-20T21:01:06.952Z,4.55
2023-05-20T21:03:34.354Z,5.07
2023-05-20T21:06:02.151Z,4.20
2023-05-20T21:08:30.627Z,3.78
2023-05-20T21:10:59.503Z,4.85
2023-05-20T21:13:30.073Z,4.43
2023-05-20T21:15:57.540Z,4.35
2023-05-20T21:18:24.837Z,4.88
2023-05-20T21:20:53.143Z,5.47
2023-05-20T21:23:21.445Z,4.25
2023-05-20T21:25:49.199Z,4.35
2023-05-20T21:28:16.698Z,5.00
2023-05-20T21:30:45.188Z,5.22
2023-05-20T21:33:12.612Z,5.65
2023-05-20T21:35:39.820Z,5.68
2023-05-20T21:38:06.887Z,5.40
2023-05-20T21:40:34.030Z,5.20
2023-05-20T21:43:01.312Z,5.25
2023-05-20T21:45:28.386Z,5.35
2023-05-20T21:47:55.562Z,5.65
2023-05-20T21:50:23.199Z,5.85
2023-05-20T21:52:50.630Z,4.60
2023-05-20T21:55:23.363Z,4.75
2023-05-20T21:57:51.290Z,5.45
2023-05-20T22:00:19.334Z,5.28
2023-05-20T22:02:46.962Z,4.95
2023-05-20T22:05:15.796Z,5.20
2023-05-20T22:07:44.662Z,5.72
2023-05-20T22:10:13.820Z,5.95
2023-05-20T22:12:44.108Z,5.57
2023-05-20T22:15:11.614Z,4.93
2023-05-20T22:17:41.271Z,4.90
2023-05-20T22:20:10.602Z,4.88
2023-05-20T22:22:39.426Z,3.97
2023-05-20T22:25:07.311Z,4.85
2023-05-20T22:27:35.086Z,4.82
2023-05-20T22:30:06.105Z,5.18
2023-05-20T22:32:33.350Z,3.75
2023-05-20T22:35:00.458Z,4.20
2023-05-20T22:37:28.968Z,5.15
2023-05-20T22:39:56.862Z,3.05
2023-05-20T22:42:24.243Z,4.38
2023-05-20T22:44:51.338Z,4.50
2023-05-20T22:47:18.669Z,4.03
2023-05-20T22:49:45.902Z,4.32
2023-05-20T22:52:12.951Z,4.85
2023-05-20T22:54:40.170Z,4.28
2023-05-20T22:57:07.819Z,4.30
2023-05-20T22:59:36.753Z,4.68
2023-05-20T23:02:04.649Z,4.43
2023-05-20T23:04:32.533Z,3.05
2023-05-20T23:07:00.238Z,3.53
2023-05-20T23:09:27.356Z,4.07
2023-05-20T23:11:54.612Z,4.47
2023-05-20T23:14:21.932Z,3.58
2023-05-20T23:16:49.190Z,3.20
2023-05-20T23:19:16.918Z,3.38
2023-05-20T23:21:44.176Z,3.80
2023-05-20T23:24:12.023Z,4.40
2023-05-20T23:26:39.695Z,4.47
2023-05-20T23:29:06.988Z,4.05
2023-05-20T23:31:34.312Z,3.58
2023-05-20T23:34:03.924Z,2.75
2023-05-20T23:36:35.375Z,4.55
2023-05-20T23:39:03.076Z,4.30
2023-05-20T23:41:30.189Z,4.32
2023-05-20T23:43:57.271Z,3.63
2023-05-20T23:46:24.359Z,4.43
2023-05-20T23:48:52.214Z,4.30
2023-05-20T23:51:19.470Z,4.13
2023-05-20T23:53:46.525Z,4.30
2023-05-20T23:56:13.774Z,4.15
2023-05-20T23:58:41.013Z,3.83
